createdAt,value
2022-12-20T00:00:18.111Z,1.95
2022-12-20T00:02:47.940Z,1.93
2022-12-20T00:05:17.618Z,2.20
2022-12-20T00:07:47.372Z,2.13
2022-12-20T00:10:17.191Z,2.07
2022-12-20T00:12:47.035Z,2.00
2022-12-20T00:15:17.511Z,2.10
2022-12-20T00:17:47.324Z,2.17
2022-12-20T00:20:17.219Z,1.77
2022-12-20T00:22:47.019Z,1.87
2022-12-20T00:25:16.935Z,1.80
2022-12-20T00:27:46.745Z,2.20
2022-12-20T00:30:17.186Z,1.80
2022-12-20T00:32:47.487Z,1.60
2022-12-20T00:35:17.012Z,2.12
2022-12-20T00:37:46.763Z,2.10
2022-12-20T00:40:17.545Z,1.62
2022-12-20T00:42:47.603Z,1.57
2022-12-20T00:45:17.533Z,1.97
2022-12-20T00:47:47.290Z,1.80
2022-12-20T00:50:16.856Z,1.80
2022-12-20T00:52:46.608Z,1.70
2022-12-20T00:55:16.481Z,1.60
2022-12-20T00:57:46.276Z,1.93
2022-12-20T01:00:17.956Z,1.88
2022-12-20T01:02:48.995Z,1.80
2022-12-20T01:05:19.025Z,1.70
2022-12-20T01:07:48.750Z,2.00
2022-12-20T01:10:18.650Z,1.85
2022-12-20T01:12:48.458Z,1.63
2022-12-20T01:15:18.794Z,1.82
2022-12-20T01:17:48.751Z,1.80
2022-12-20T01:20:18.760Z,1.90
2022-12-20T01:22:48.513Z,2.00
2022-12-20T01:25:18.253Z,1.62
2022-12-20T01:27:47.968Z,1.70
2022-12-20T01:30:17.484Z,1.80
2022-12-20T01:32:47.533Z,1.80
2022-12-20T01:35:17.356Z,1.80
2022-12-20T01:37:47.089Z,2.00
2022-12-20T01:40:17.519Z,1.85
2022-12-20T01:42:47.548Z,1.77
2022-12-20T01:45:20.423Z,2.10
2022-12-20T01:47:49.895Z,1.90
2022-12-20T01:50:19.488Z,2.02
2022-12-20T01:52:49.761Z,2.52
2022-12-20T01:55:23.193Z,2.45
2022-12-20T01:57:56.011Z,2.20
2022-12-20T02:00:26.184Z,2.12
2022-12-20T02:02:56.830Z,2.53
2022-12-20T02:05:26.544Z,2.27
2022-12-20T02:07:58.133Z,2.20
2022-12-20T02:10:30.624Z,2.22
2022-12-20T02:13:03.386Z,2.97
2022-12-20T02:15:42.377Z,2.37
2022-12-20T02:18:35.965Z,2.63
2022-12-20T02:21:26.138Z,2.50
2022-12-20T02:24:24.471Z,2.70
2022-12-20T02:27:22.522Z,2.53
2022-12-20T02:30:13.106Z,3.13
2022-12-20T02:32:58.061Z,3.25
2022-12-20T02:35:31.179Z,2.90
2022-12-20T02:38:03.789Z,3.43
2022-12-20T02:40:39.276Z,2.77
2022-12-20T02:43:29.089Z,3.17
2022-12-20T02:46:01.904Z,3.00
2022-12-20T02:48:35.229Z,2.60
2022-12-20T02:51:06.713Z,3.47
2022-12-20T02:53:38.178Z,3.00
2022-12-20T02:56:19.461Z,2.85
2022-12-20T02:58:58.143Z,3.20
2022-12-20T03:01:43.176Z,2.72
2022-12-20T03:04:14.412Z,3.08
2022-12-20T03:06:58.785Z,3.40
2022-12-20T03:09:31.153Z,2.80
2022-12-20T03:12:01.212Z,2.40
2022-12-20T03:14:32.152Z,3.10
2022-12-20T03:17:02.519Z,3.17
2022-12-20T03:19:32.886Z,3.02
2022-12-20T03:24:47.094Z,3.02
2022-12-20T03:27:17.038Z,3.57
2022-12-20T03:29:46.947Z,3.33
2022-12-20T03:32:17.272Z,2.62
2022-12-20T03:34:47.231Z,2.70
2022-12-20T03:37:17.800Z,2.90
2022-12-20T03:39:47.666Z,2.80
2022-12-20T03:42:17.376Z,2.67
2022-12-20T03:44:47.394Z,2.47
2022-12-20T03:47:17.166Z,3.30
2022-12-20T03:49:48.707Z,2.73
2022-12-20T03:52:18.706Z,2.98
2022-12-20T03:54:49.675Z,2.47
2022-12-20T03:57:21.091Z,2.97
2022-12-20T03:59:54.123Z,2.70
2022-12-20T04:02:25.053Z,2.52
2022-12-20T04:04:56.482Z,2.53
2022-12-20T04:07:26.186Z,2.63
2022-12-20T04:09:56.015Z,2.47
2022-12-20T04:12:25.483Z,2.40
2022-12-20T04:14:55.355Z,2.40
2022-12-20T04:17:25.148Z,1.90
2022-12-20T04:19:55.145Z,2.07
2022-12-20T04:22:25.203Z,2.10
2022-12-20T04:24:56.653Z,1.83
2022-12-20T04:27:28.193Z,2.10
2022-12-20T04:29:58.061Z,2.00
2022-12-20T04:32:27.891Z,2.10
2022-12-20T04:34:57.661Z,1.90
2022-12-20T04:37:27.143Z,2.00
2022-12-20T04:39:58.291Z,1.83
2022-12-20T04:42:32.492Z,1.80
2022-12-20T04:45:04.166Z,1.97
2022-12-20T04:47:34.335Z,1.87
2022-12-20T04:50:04.421Z,1.77
2022-12-20T04:52:51.817Z,2.03
2022-12-20T04:55:22.972Z,1.75
2022-12-20T04:57:52.734Z,2.10
2022-12-20T05:00:22.784Z,1.70
2022-12-20T05:02:54.449Z,1.87
2022-12-20T05:05:25.994Z,1.73
2022-12-20T05:07:56.589Z,1.57
2022-12-20T05:10:26.403Z,2.30
2022-12-20T05:12:56.566Z,1.67
2022-12-20T05:15:28.283Z,1.67
2022-12-20T05:17:59.652Z,1.72
2022-12-20T05:20:31.965Z,1.80
2022-12-20T05:23:19.604Z,1.70
2022-12-20T05:26:09.802Z,1.60
2022-12-20T05:28:40.043Z,1.70
2022-12-20T05:31:09.847Z,1.80
2022-12-20T05:33:40.343Z,1.90
2022-12-20T05:36:12.083Z,2.08
2022-12-20T05:38:41.956Z,1.90
2022-12-20T05:41:13.745Z,2.10
2022-12-20T05:43:44.091Z,1.57
2022-12-20T05:46:14.492Z,1.67
2022-12-20T05:48:45.911Z,1.70
2022-12-20T05:51:15.925Z,2.20
2022-12-20T05:53:47.728Z,1.95
2022-12-20T05:56:18.936Z,1.40
2022-12-20T05:58:49.949Z,1.90
2022-12-20T06:01:20.510Z,1.77
2022-12-20T06:03:52.750Z,1.90
2022-12-20T06:06:23.386Z,1.60
2022-12-20T06:08:53.208Z,2.20
2022-12-20T06:11:29.820Z,2.17
2022-12-20T06:13:58.252Z,2.03
2022-12-20T06:16:28.546Z,2.03
2022-12-20T06:19:00.598Z,1.90
2022-12-20T06:21:32.098Z,1.40
2022-12-20T06:24:02.142Z,1.90
2022-12-20T06:26:34.009Z,2.00
2022-12-20T06:29:08.990Z,1.37
2022-12-20T06:31:43.480Z,2.00
2022-12-20T06:34:13.275Z,2.00
2022-12-20T06:36:44.509Z,1.57
2022-12-20T06:39:16.283Z,2.10
2022-12-20T06:41:47.835Z,1.60
2022-12-20T06:44:17.514Z,1.80
2022-12-20T06:46:47.311Z,1.70
2022-12-20T06:49:17.336Z,1.85
2022-12-20T06:51:47.161Z,1.70
2022-12-20T06:54:17.707Z,2.00
2022-12-20T06:56:47.435Z,1.70
2022-12-20T06:59:18.344Z,2.00
2022-12-20T07:01:48.336Z,1.70
2022-12-20T07:04:17.823Z,1.70
2022-12-20T07:06:47.565Z,1.70
2022-12-20T07:09:18.135Z,2.40
2022-12-20T07:11:47.880Z,1.83
2022-12-20T07:14:17.600Z,1.72
2022-12-20T07:16:47.521Z,1.83
2022-12-20T07:19:18.096Z,2.02
2022-12-20T07:21:48.709Z,2.07
2022-12-20T07:24:18.285Z,1.80
2022-12-20T07:26:48.135Z,2.10
2022-12-20T07:29:17.868Z,2.00
2022-12-20T07:31:47.820Z,2.33
2022-12-20T07:34:17.542Z,1.98
2022-12-20T07:36:47.329Z,2.03
2022-12-20T07:39:19.237Z,2.20
2022-12-20T07:41:48.999Z,2.00
2022-12-20T07:44:19.189Z,2.40
2022-12-20T07:46:49.151Z,2.37
2022-12-20T07:49:18.951Z,2.20
2022-12-20T07:51:57.138Z,1.80
2022-12-20T07:54:30.265Z,2.00
2022-12-20T07:57:02.845Z,1.70
2022-12-20T07:59:38.854Z,1.95
2022-12-20T08:02:12.050Z,1.77
2022-12-20T08:04:42.570Z,1.60
2022-12-20T08:07:13.141Z,2.10
2022-12-20T08:09:45.281Z,1.77
2022-12-20T08:12:17.630Z,1.82
2022-12-20T08:14:47.447Z,1.50
2022-12-20T08:17:17.306Z,1.60
2022-12-20T08:19:47.501Z,1.53
2022-12-20T08:22:17.259Z,1.70
2022-12-20T08:24:47.138Z,1.55
2022-12-20T08:27:16.991Z,1.60
2022-12-20T08:29:47.142Z,1.47
2022-12-20T08:32:16.725Z,1.90
2022-12-20T08:34:48.353Z,1.77
2022-12-20T08:37:18.686Z,1.40
2022-12-20T08:39:48.484Z,1.53
2022-12-20T08:42:18.276Z,1.70
2022-12-20T08:44:47.997Z,1.27
2022-12-20T08:47:17.723Z,1.50
2022-12-20T08:49:48.266Z,1.80
2022-12-20T08:52:17.831Z,1.40
2022-12-20T08:54:47.931Z,1.50
2022-12-20T08:57:17.783Z,1.60
2022-12-20T08:59:47.305Z,1.70
2022-12-20T09:02:17.366Z,1.47
2022-12-20T09:04:47.547Z,1.60
2022-12-20T09:07:18.440Z,1.80
2022-12-20T09:09:48.299Z,1.30
2022-12-20T09:12:17.872Z,1.70
2022-12-20T09:14:47.707Z,1.53
2022-12-20T09:17:17.482Z,1.63
2022-12-20T09:19:47.306Z,1.70
2022-12-20T09:22:16.855Z,1.70
2022-12-20T09:24:46.611Z,1.73
2022-12-20T09:27:16.410Z,1.50
2022-12-20T09:29:46.228Z,1.70
2022-12-20T09:32:16.225Z,1.50
2022-12-20T09:34:47.356Z,1.80
2022-12-20T09:37:17.097Z,2.00
2022-12-20T09:39:48.374Z,1.93
2022-12-20T09:42:20.900Z,2.27
2022-12-20T09:44:50.920Z,2.10
2022-12-20T09:47:24.081Z,1.97
2022-12-20T09:49:56.907Z,2.00
2022-12-20T09:52:47.631Z,2.40
2022-12-20T09:55:35.229Z,2.40
2022-12-20T09:58:15.155Z,2.53
2022-12-20T10:00:53.594Z,2.10
2022-12-20T10:03:25.441Z,1.97
2022-12-20T10:05:57.736Z,2.23
2022-12-20T10:08:48.650Z,2.30
2022-12-20T10:11:48.048Z,2.20
2022-12-20T10:14:31.095Z,2.03
2022-12-20T10:17:03.876Z,2.30
2022-12-20T10:20:01.974Z,2.27
2022-12-20T10:22:43.519Z,2.55
2022-12-20T10:25:18.888Z,2.42
2022-12-20T10:27:50.613Z,2.67
2022-12-20T10:30:23.385Z,2.33
2022-12-20T10:32:56.254Z,2.52
2022-12-20T10:35:29.751Z,2.27
2022-12-20T10:38:10.153Z,2.67
2022-12-20T10:41:10.628Z,2.20
2022-12-20T10:43:17.248Z,2.10
2022-12-20T10:46:01.696Z,1.80
2022-12-20T10:48:34.722Z,2.55
2022-12-20T10:51:16.089Z,2.20
2022-12-20T10:54:01.879Z,2.17
2022-12-20T10:56:37.744Z,2.08
2022-12-20T10:59:22.155Z,2.05
2022-12-20T11:01:52.322Z,2.10
2022-12-20T11:04:38.535Z,1.98
2022-12-20T11:07:25.966Z,2.00
2022-12-20T11:10:16.643Z,2.47
2022-12-20T11:12:59.960Z,2.25
2022-12-20T11:15:35.225Z,2.20
2022-12-20T11:21:28.274Z,2.60
2022-12-20T11:24:01.688Z,2.73
2022-12-20T11:26:50.193Z,2.27
2022-12-20T11:29:45.408Z,2.60
2022-12-20T11:32:22.078Z,2.70
2022-12-20T11:35:12.548Z,2.40
2022-12-20T11:38:12.497Z,2.50
2022-12-20T11:41:02.648Z,2.80
2022-12-20T11:44:23.400Z,2.73
2022-12-20T11:46:49.873Z,2.57
2022-12-20T11:49:38.925Z,3.10
2022-12-20T11:55:31.120Z,2.90
2022-12-20T11:58:18.523Z,2.80
2022-12-20T12:00:42.798Z,3.20
2022-12-20T12:03:17.057Z,3.90
2022-12-20T12:05:49.735Z,3.77
2022-12-20T12:08:29.049Z,3.10
2022-12-20T12:11:04.278Z,3.13
2022-12-20T12:13:37.153Z,2.90
2022-12-20T12:16:23.140Z,3.07
2022-12-20T12:18:52.968Z,3.30
2022-12-20T12:21:25.760Z,3.13
2022-12-20T12:24:30.138Z,3.03
2022-12-20T12:27:03.074Z,3.37
2022-12-20T12:29:35.210Z,3.37
2022-12-20T12:32:10.782Z,3.53
2022-12-20T12:35:07.359Z,3.60
2022-12-20T12:37:57.321Z,3.63
2022-12-20T12:40:43.905Z,3.50
2022-12-20T12:43:23.304Z,3.20
2022-12-20T12:45:59.778Z,3.50
2022-12-20T12:48:44.497Z,3.45
2022-12-20T12:51:16.357Z,3.53
2022-12-20T12:53:51.406Z,3.47
2022-12-20T12:56:46.433Z,3.47
2022-12-20T12:59:13.039Z,3.30
2022-12-20T13:01:57.424Z,3.60
2022-12-20T13:04:30.599Z,4.00
2022-12-20T13:07:03.210Z,4.00
2022-12-20T13:09:36.389Z,4.17
2022-12-20T13:12:40.799Z,4.25
2022-12-20T13:15:25.008Z,3.77
2022-12-20T13:18:02.768Z,3.95
2022-12-20T13:20:35.105Z,4.90
2022-12-20T13:23:14.116Z,4.55
2022-12-20T13:25:49.112Z,4.50
2022-12-20T13:28:27.657Z,4.08
2022-12-20T13:31:08.678Z,4.63
2022-12-20T13:33:46.210Z,4.47
2022-12-20T13:36:33.956Z,5.13
2022-12-20T13:39:07.151Z,4.67
2022-12-20T13:41:39.802Z,4.85
2022-12-20T13:44:13.025Z,5.20
2022-12-20T13:46:57.207Z,4.83
2022-12-20T13:49:41.878Z,4.47
2022-12-20T13:52:19.701Z,4.80
2022-12-20T13:54:52.600Z,5.67
2022-12-20T13:57:41.927Z,5.40
2022-12-20T14:00:20.378Z,5.05
2022-12-20T14:02:50.442Z,5.63
2022-12-20T14:05:28.421Z,6.60
2022-12-20T14:08:03.460Z,5.30
2022-12-20T14:10:35.224Z,5.43
2022-12-20T14:13:06.623Z,5.10
2022-12-20T14:15:36.726Z,5.33
2022-12-20T14:18:09.646Z,5.33
2022-12-20T14:20:39.538Z,4.67
2022-12-20T14:23:30.068Z,5.07
2022-12-20T14:26:02.491Z,5.37
2022-12-20T14:28:47.287Z,5.10
2022-12-20T14:31:41.244Z,4.67
2022-12-20T14:34:15.035Z,4.67
2022-12-20T14:36:50.130Z,4.70
2022-12-20T14:39:30.776Z,5.40
2022-12-20T14:42:05.307Z,5.13
2022-12-20T14:44:35.690Z,5.03
2022-12-20T14:47:15.425Z,5.78
2022-12-20T14:49:56.838Z,5.00
2022-12-20T14:52:40.571Z,4.87
2022-12-20T14:55:18.642Z,4.80
2022-12-20T14:57:53.966Z,5.03
2022-12-20T15:00:27.531Z,4.78
2022-12-20T15:03:01.278Z,4.73
2022-12-20T15:05:40.429Z,4.70
2022-12-20T15:08:27.338Z,4.93
2022-12-20T15:11:03.836Z,4.80
2022-12-20T15:13:38.938Z,4.47
2022-12-20T15:16:18.630Z,4.77
2022-12-20T15:18:49.564Z,4.40
2022-12-20T15:21:28.263Z,4.90
2022-12-20T15:24:00.837Z,4.60
2022-12-20T15:26:31.439Z,4.97
2022-12-20T15:29:01.736Z,5.00
2022-12-20T15:31:34.349Z,5.53
2022-12-20T15:34:16.257Z,5.53
2022-12-20T15:36:46.749Z,5.72
2022-12-20T15:39:18.225Z,7.00
2022-12-20T15:41:50.828Z,7.95
2022-12-20T15:44:28.590Z,6.10
2022-12-20T15:46:58.509Z,6.13
2022-12-20T15:49:30.827Z,6.00
2022-12-20T15:52:01.025Z,6.22
2022-12-20T15:54:33.580Z,5.80
2022-12-20T15:57:07.920Z,6.47
2022-12-20T16:02:23.120Z,6.73
2022-12-20T16:04:55.073Z,6.70
2022-12-20T16:07:24.892Z,6.90
2022-12-20T16:09:54.692Z,7.97
2022-12-20T16:12:27.461Z,9.18
2022-12-20T16:14:57.381Z,11.23
2022-12-20T16:17:27.150Z,8.00
2022-12-20T16:19:56.692Z,8.70
2022-12-20T16:22:26.835Z,8.65
2022-12-20T16:24:56.682Z,8.80
2022-12-20T16:27:26.472Z,9.33
2022-12-20T16:29:56.229Z,8.63
2022-12-20T16:32:25.777Z,9.67
2022-12-20T16:34:55.537Z,9.13
2022-12-20T16:37:25.262Z,9.53
2022-12-20T16:39:56.067Z,10.82
2022-12-20T16:42:25.668Z,10.83
2022-12-20T16:44:55.762Z,9.73
2022-12-20T16:47:25.485Z,10.53
2022-12-20T16:49:55.254Z,11.77
2022-12-20T16:52:25.038Z,9.48
2022-12-20T16:54:55.550Z,10.87
2022-12-20T16:57:25.320Z,10.70
2022-12-20T16:59:55.086Z,10.60
2022-12-20T17:02:33.262Z,11.30
2022-12-20T17:05:03.161Z,12.30
2022-12-20T17:07:37.943Z,12.53
2022-12-20T17:10:11.507Z,10.25
2022-12-20T17:12:41.637Z,11.70
2022-12-20T17:15:17.395Z,13.20
2022-12-20T17:17:47.245Z,11.73
2022-12-20T17:20:21.533Z,14.60
2022-12-20T17:22:53.922Z,15.93
2022-12-20T17:25:29.886Z,18.02
2022-12-20T17:27:59.372Z,15.25
2022-12-20T17:30:29.201Z,17.40
2022-12-20T17:32:59.027Z,17.73
2022-12-20T17:35:32.344Z,18.57
2022-12-20T17:38:02.698Z,16.33
2022-12-20T17:40:32.333Z,19.00
2022-12-20T17:43:02.170Z,19.93
2022-12-20T17:45:36.348Z,15.20
2022-12-20T17:48:08.579Z,15.40
2022-12-20T17:50:38.479Z,15.73
2022-12-20T17:53:10.008Z,15.13
2022-12-20T17:55:39.740Z,15.83
2022-12-20T17:58:10.277Z,21.10
2022-12-20T18:00:40.341Z,17.37
2022-12-20T18:03:30.145Z,19.00
2022-12-20T18:05:43.184Z,17.70
2022-12-20T18:08:14.027Z,21.27
2022-12-20T18:10:45.661Z,17.03
2022-12-20T18:13:15.490Z,18.40
2022-12-20T18:15:45.264Z,25.60
2022-12-20T18:18:16.291Z,19.28
2022-12-20T18:20:46.104Z,19.93
2022-12-20T18:23:15.928Z,14.90
2022-12-20T18:25:45.868Z,16.63
2022-12-20T18:28:15.579Z,15.70
2022-12-20T18:30:45.638Z,15.65
2022-12-20T18:33:15.422Z,16.60
2022-12-20T18:35:45.496Z,17.20
2022-12-20T18:38:16.444Z,15.43
2022-12-20T18:40:46.559Z,14.30
2022-12-20T18:43:16.599Z,13.28
2022-12-20T18:45:46.422Z,16.10
2022-12-20T18:48:16.362Z,14.47
2022-12-20T18:50:46.398Z,20.05
2022-12-20T18:53:16.155Z,16.00
2022-12-20T18:55:45.923Z,14.70
2022-12-20T18:58:15.451Z,16.53
2022-12-20T19:00:45.387Z,15.93
2022-12-20T19:03:15.483Z,16.67
2022-12-20T19:05:45.321Z,15.70
2022-12-20T19:08:15.543Z,14.50
2022-12-20T19:10:45.468Z,14.20
2022-12-20T19:13:17.300Z,14.10
2022-12-20T19:15:47.710Z,15.53
2022-12-20T19:18:17.622Z,14.90
2022-12-20T19:20:47.363Z,13.83
2022-12-20T19:23:17.130Z,14.83
2022-12-20T19:25:46.939Z,14.53
2022-12-20T19:28:16.691Z,14.42
2022-12-20T19:30:46.557Z,14.30
2022-12-20T19:33:16.278Z,14.10
2022-12-20T19:35:55.441Z,15.18
2022-12-20T19:38:17.842Z,15.43
2022-12-20T19:40:53.429Z,15.17
2022-12-20T19:43:23.216Z,14.83
2022-12-20T19:45:53.484Z,15.53
2022-12-20T19:48:23.398Z,15.23
2022-12-20T19:50:54.363Z,16.40
2022-12-20T19:53:24.115Z,15.57
2022-12-20T19:55:54.249Z,16.20
2022-12-20T19:58:23.937Z,16.27
2022-12-20T20:00:53.933Z,16.80
2022-12-20T20:03:24.335Z,16.30
2022-12-20T20:05:55.622Z,16.77
2022-12-20T20:08:25.797Z,15.65
2022-12-20T20:10:57.200Z,16.37
2022-12-20T20:13:28.632Z,17.02
2022-12-20T20:16:01.651Z,18.20
2022-12-20T20:18:33.070Z,15.90
2022-12-20T20:21:11.770Z,17.40
2022-12-20T20:23:42.223Z,16.33
2022-12-20T20:26:17.775Z,16.87
2022-12-20T20:28:47.217Z,18.57
2022-12-20T20:31:18.296Z,18.30
2022-12-20T20:33:48.748Z,16.25
2022-12-20T20:36:21.635Z,16.36
2022-12-20T20:38:52.544Z,16.37
2022-12-20T20:41:22.591Z,16.63
2022-12-20T20:43:52.349Z,16.77
2022-12-20T20:46:22.607Z,15.80
2022-12-20T20:48:52.451Z,20.30
2022-12-20T20:51:22.501Z,18.30
2022-12-20T20:53:52.573Z,17.40
2022-12-20T20:56:23.018Z,17.75
2022-12-20T20:58:57.636Z,18.57
2022-12-20T21:01:25.333Z,18.70
2022-12-20T21:03:55.275Z,17.03
2022-12-20T21:06:42.029Z,16.82
2022-12-20T21:08:56.737Z,16.43
2022-12-20T21:11:26.571Z,17.37
2022-12-20T21:13:56.593Z,16.70
2022-12-20T21:16:26.488Z,17.37
2022-12-20T21:18:59.166Z,17.10
2022-12-20T21:21:29.798Z,17.57
2022-12-20T21:23:59.584Z,17.77
2022-12-20T21:26:29.640Z,18.52
2022-12-20T21:29:00.984Z,18.40
2022-12-20T21:31:31.468Z,18.30
2022-12-20T21:34:01.240Z,19.23
2022-12-20T21:36:30.964Z,19.30
2022-12-20T21:39:00.791Z,19.20
2022-12-20T21:41:30.553Z,18.95
2022-12-20T21:44:01.564Z,19.77
2022-12-20T21:46:32.448Z,20.57
2022-12-20T21:49:02.044Z,20.00
2022-12-20T21:51:32.113Z,20.50
2022-12-20T21:54:03.208Z,20.17
2022-12-20T21:56:35.574Z,18.90
2022-12-20T21:59:05.791Z,18.42
2022-12-20T22:01:35.723Z,19.97
2022-12-20T22:04:07.616Z,18.40
2022-12-20T22:06:37.429Z,17.50
2022-12-20T22:09:09.630Z,17.65
2022-12-20T22:11:40.508Z,16.97
2022-12-20T22:14:13.618Z,18.02
2022-12-20T22:16:43.776Z,18.93
2022-12-20T22:19:15.382Z,19.27
2022-12-20T22:21:45.193Z,19.00
2022-12-20T22:24:14.650Z,19.10
2022-12-20T22:26:44.573Z,20.53
2022-12-20T22:29:14.333Z,20.00
2022-12-20T22:31:44.220Z,20.53
2022-12-20T22:34:15.249Z,21.96
2022-12-20T22:36:45.000Z,22.90
2022-12-20T22:39:14.749Z,22.93
2022-12-20T22:41:44.697Z,22.90
2022-12-20T22:44:14.997Z,24.52
2022-12-20T22:46:44.745Z,23.40
2022-12-20T22:49:20.276Z,23.93
2022-12-20T22:52:02.693Z,25.23
2022-12-20T22:54:21.220Z,25.15
2022-12-20T22:56:50.965Z,23.93
2022-12-20T22:59:20.802Z,26.50
2022-12-20T23:01:50.529Z,26.25
2022-12-20T23:04:20.577Z,27.45
2022-12-20T23:06:50.721Z,26.97
2022-12-20T23:09:20.551Z,28.50
2022-12-20T23:12:08.097Z,29.37
2022-12-20T23:15:00.194Z,29.67
2022-12-20T23:17:26.839Z,29.00
2022-12-20T23:20:14.398Z,30.30
2022-12-20T23:22:45.036Z,29.77
2022-12-20T23:25:18.054Z,30.20
2022-12-20T23:27:50.299Z,28.87
2022-12-20T23:30:22.372Z,31.57
2022-12-20T23:32:53.629Z,32.37
2022-12-20T23:35:24.622Z,31.53
2022-12-20T23:37:56.307Z,31.70
2022-12-20T23:40:25.786Z,33.13
2022-12-20T23:42:55.532Z,31.90
2022-12-20T23:45:25.122Z,31.20
2022-12-20T23:47:54.942Z,30.70
2022-12-20T23:50:24.696Z,31.97
2022-12-20T23:52:54.161Z,32.90
2022-12-20T23:55:23.701Z,32.93
2022-12-20T23:57:53.735Z,33.02
